createdAt,value
2022-10-19T00:01:22.991Z,99479.59
2022-10-19T00:04:25.616Z,99478.59
2022-10-19T00:07:28.343Z,99469.72
2022-10-19T00:10:31.078Z,99459.50
2022-10-19T00:13:35.314Z,99451.19
2022-10-19T00:16:39.162Z,99452.84
2022-10-19T00:19:41.896Z,99445.13
2022-10-19T00:22:44.636Z,99445.00
2022-10-19T00:25:55.535Z,99434.44
2022-10-19T00:28:59.662Z,99429.09
2022-10-19T00:32:02.369Z,99423.06
2022-10-19T00:35:05.293Z,99419.72
2022-10-19T00:38:07.941Z,99407.38
2022-10-19T00:41:10.607Z,99403.84
2022-10-19T00:44:31.633Z,99396.97
2022-10-19T00:47:35.670Z,99397.47
2022-10-19T00:50:38.734Z,99386.63
2022-10-19T00:53:42.191Z,99391.13
2022-10-19T00:56:46.170Z,99390.28
2022-10-19T00:59:48.986Z,99380.09
2022-10-19T01:02:53.022Z,99383.44
2022-10-19T01:05:55.784Z,99371.25
2022-10-19T01:08:58.409Z,99371.25
2022-10-19T01:12:06.020Z,99352.03
2022-10-19T01:15:17.774Z,99348.38
2022-10-19T01:18:23.194Z,99342.50
2022-10-19T01:21:27.158Z,99346.16
2022-10-19T01:24:41.525Z,99341.81
2022-10-19T01:28:05.311Z,99341.16
2022-10-19T01:31:15.054Z,99337.75
2022-10-19T01:34:20.822Z,99330.75
2022-10-19T01:37:28.408Z,99314.44
2022-10-19T01:40:35.180Z,99316.09
2022-10-19T01:43:41.290Z,99308.53
2022-10-19T01:46:48.424Z,99300.69
2022-10-19T01:49:54.683Z,99292.84
2022-10-19T01:52:58.664Z,99295.03
2022-10-19T01:56:03.083Z,99294.16
2022-10-19T01:59:07.733Z,99292.84
2022-10-19T02:02:13.078Z,99292.97
2022-10-19T02:05:17.608Z,99282.28
2022-10-19T02:08:23.403Z,99279.13
2022-10-19T02:11:26.221Z,99271.09
2022-10-19T02:14:30.468Z,99272.28
2022-10-19T02:17:36.593Z,99269.28
2022-10-19T02:20:39.593Z,99262.84
2022-10-19T02:23:42.270Z,99270.44
2022-10-19T02:26:45.165Z,99262.41
2022-10-19T02:29:48.064Z,99254.91
2022-10-19T02:32:52.484Z,99249.41
2022-10-19T02:35:55.204Z,99240.31
2022-10-19T02:38:57.873Z,99251.84
2022-10-19T02:42:04.493Z,99241.06
2022-10-19T02:45:11.046Z,99234.72
2022-10-19T02:48:19.308Z,99233.88
2022-10-19T02:51:28.465Z,99232.31
2022-10-19T02:54:31.170Z,99225.13
2022-10-19T02:57:34.102Z,99211.78
2022-10-19T03:00:37.302Z,99203.94
2022-10-19T03:03:41.582Z,99209.28
2022-10-19T03:06:44.316Z,99188.41
2022-10-19T03:09:47.070Z,99192.03
2022-10-19T03:12:49.741Z,99182.34
2022-10-19T03:15:52.472Z,99177.19
2022-10-19T03:18:56.537Z,99179.69
2022-10-19T03:21:59.580Z,99162.84
2022-10-19T03:25:02.275Z,99159.50
2022-10-19T03:28:05.046Z,99155.81
2022-10-19T03:31:07.867Z,99147.97
2022-10-19T03:34:11.939Z,99130.13
2022-10-19T03:37:15.288Z,99137.13
2022-10-19T03:40:18.071Z,99116.59
2022-10-19T03:43:20.771Z,99117.22
2022-10-19T03:46:23.922Z,99104.72
2022-10-19T03:49:27.932Z,99098.25
2022-10-19T03:52:30.644Z,99110.59
2022-10-19T03:55:33.354Z,99103.88
2022-10-19T03:58:37.079Z,99091.06
2022-10-19T04:01:41.151Z,99086.19
2022-10-19T04:04:45.161Z,99088.56
2022-10-19T04:07:47.888Z,99076.50
2022-10-19T04:10:50.578Z,99071.19
2022-10-19T04:13:54.349Z,99060.81
2022-10-19T04:16:57.063Z,99063.97
2022-10-19T04:20:01.101Z,99063.16
2022-10-19T04:23:03.822Z,99060.13
2022-10-19T04:26:07.953Z,99049.44
2022-10-19T04:29:11.444Z,99049.28
2022-10-19T04:32:14.159Z,99043.28
2022-10-19T04:35:18.244Z,99044.28
2022-10-19T04:38:20.950Z,99029.75
2022-10-19T04:41:23.734Z,99044.13
2022-10-19T04:44:26.421Z,99049.28
2022-10-19T04:47:29.993Z,99042.63
2022-10-19T04:50:34.017Z,99052.47
2022-10-19T04:53:37.927Z,99051.13
2022-10-19T04:56:41.014Z,99043.94
2022-10-19T04:59:43.668Z,99028.44
2022-10-19T05:02:46.516Z,99041.09
2022-10-19T05:05:50.642Z,99031.59
2022-10-19T05:08:53.374Z,99028.09
2022-10-19T05:11:56.016Z,99027.91
2022-10-19T05:14:58.769Z,99028.25
2022-10-19T05:18:01.462Z,99031.28
2022-10-19T05:21:06.661Z,99029.75
2022-10-19T05:24:11.907Z,99021.09
2022-10-19T05:27:14.630Z,99016.94
2022-10-19T05:30:17.413Z,99013.56
2022-10-19T05:33:20.155Z,99008.09
2022-10-19T05:36:26.316Z,99007.09
2022-10-19T05:39:29.177Z,99005.91
2022-10-19T05:42:31.936Z,99000.06
2022-10-19T05:45:34.703Z,99008.28
2022-10-19T05:48:38.206Z,99002.41
2022-10-19T05:51:42.277Z,98997.72
2022-10-19T05:54:44.994Z,98989.41
2022-10-19T05:57:47.671Z,98979.38
2022-10-19T06:00:53.945Z,98965.38
2022-10-19T06:03:57.873Z,98967.72
2022-10-19T06:07:01.982Z,98954.34
2022-10-19T06:10:04.941Z,98943.38
2022-10-19T06:13:07.692Z,98931.84
2022-10-19T06:16:11.069Z,98932.69
2022-10-19T06:19:13.744Z,98923.00
2022-10-19T06:22:18.949Z,98924.22
2022-10-19T06:25:21.678Z,98925.22
2022-10-19T06:28:24.408Z,98926.84
2022-10-19T06:31:27.193Z,98925.69
2022-10-19T06:34:30.005Z,98912.84
2022-10-19T06:37:34.402Z,98927.00
2022-10-19T06:40:37.676Z,98930.69
2022-10-19T06:43:42.917Z,98913.81
2022-10-19T06:46:45.657Z,98917.88
2022-10-19T06:49:48.432Z,98901.66
2022-10-19T06:52:52.546Z,98900.66
2022-10-19T06:55:57.916Z,98886.47
2022-10-19T06:59:00.617Z,98875.44
2022-10-19T07:02:03.308Z,98869.06
2022-10-19T07:05:07.282Z,98886.09
2022-10-19T07:08:11.511Z,98871.25
2022-10-19T07:11:16.648Z,98867.41
2022-10-19T07:14:19.543Z,98872.72
2022-10-19T07:17:22.515Z,98870.75
2022-10-19T07:20:25.243Z,98878.59
2022-10-19T07:23:30.262Z,98869.38
2022-10-19T07:26:33.796Z,98850.78
2022-10-19T07:29:36.497Z,98865.25
2022-10-19T07:32:41.997Z,98879.75
2022-10-19T07:35:47.185Z,98876.59
2022-10-19T10:26:19.316Z,98783.13
2022-10-19T10:29:23.203Z,98784.13
2022-10-19T10:32:26.659Z,98777.97
2022-10-19T10:35:32.503Z,98781.63
2022-10-19T10:38:36.529Z,98775.81
2022-10-19T10:41:42.246Z,98774.81
2022-10-19T10:44:47.224Z,98775.50
2022-10-19T10:47:50.319Z,98784.16
2022-10-19T10:50:53.152Z,98789.81
2022-10-19T10:54:07.415Z,98789.69
2022-10-19T10:57:16.721Z,98791.66
2022-10-19T11:00:21.222Z,98787.19
2022-10-19T11:03:26.206Z,98785.50
2022-10-19T11:06:28.898Z,98789.50
2022-10-19T11:09:35.864Z,98784.81
2022-10-19T11:12:42.069Z,98766.47
2022-10-19T11:15:48.291Z,98754.63
2022-10-19T11:18:53.092Z,98749.44
2022-10-19T11:21:58.538Z,98752.41
2022-10-19T11:25:05.490Z,98764.63
2022-10-19T11:28:17.569Z,98755.47
2022-10-19T11:31:22.089Z,98753.78
2022-10-19T11:34:45.216Z,98766.78
2022-10-19T11:38:17.547Z,98752.13
2022-10-19T11:41:21.223Z,98754.44
2022-10-19T11:44:30.519Z,98749.75
2022-10-19T11:47:37.621Z,98745.25
2022-10-19T11:50:53.888Z,98756.63
2022-10-19T11:54:09.939Z,98763.13
2022-10-19T11:57:17.758Z,98764.44
2022-10-19T12:03:55.879Z,98779.97
2022-10-19T12:07:05.938Z,98776.13
2022-10-19T12:10:13.825Z,98766.91
2022-10-19T12:13:18.891Z,98780.78
2022-10-19T12:16:30.527Z,98792.34
2022-10-19T12:19:36.090Z,98808.19
2022-10-19T12:22:38.868Z,98793.81
2022-10-19T12:25:44.445Z,98791.31
2022-10-19T12:28:48.826Z,98786.63
2022-10-19T12:31:53.519Z,98786.78
2022-10-19T12:35:00.371Z,98792.63
2022-10-19T12:38:07.999Z,98785.63
2022-10-19T12:41:15.509Z,98789.59
2022-10-19T12:44:28.330Z,98776.22
2022-10-19T12:47:33.047Z,98777.63
2022-10-19T12:50:50.976Z,98784.75
2022-10-19T12:54:08.106Z,98779.78
2022-10-19T12:57:27.713Z,98793.16
2022-10-19T13:00:31.579Z,98772.78
2022-10-19T13:03:36.616Z,98768.28
2022-10-19T13:06:42.253Z,98775.63
2022-10-19T13:09:46.892Z,98769.28
2022-10-19T13:12:50.308Z,98732.91
2022-10-19T13:15:53.219Z,98761.44
2022-10-19T13:19:18.754Z,98764.75
2022-10-19T13:22:26.861Z,98775.81
2022-10-19T13:25:30.510Z,98774.16
2022-10-19T13:28:39.863Z,98783.81
2022-10-19T13:31:42.584Z,98789.50
2022-10-19T13:34:46.921Z,98795.97
2022-10-19T13:38:10.903Z,98791.84
2022-10-19T13:41:18.269Z,98809.50
2022-10-19T13:44:28.955Z,98802.31
2022-10-19T13:50:51.991Z,98798.84
2022-10-19T13:53:59.227Z,98788.47
2022-10-19T13:57:17.535Z,98779.78
2022-10-19T14:00:20.846Z,98779.13
2022-10-19T14:03:31.002Z,98781.50
2022-10-19T14:06:39.772Z,98778.66
2022-10-19T14:09:54.292Z,98777.13
2022-10-19T14:12:57.793Z,98781.31
2022-10-19T14:16:02.949Z,98779.50
2022-10-19T14:19:13.538Z,98781.31
2022-10-19T14:22:21.759Z,98774.78
2022-10-19T14:25:27.016Z,98780.47
2022-10-19T14:28:30.437Z,98775.47
2022-10-19T14:31:35.441Z,98773.47
2022-10-19T14:34:40.443Z,98787.16
2022-10-19T14:37:44.953Z,98784.34
2022-10-19T14:40:47.653Z,98780.16
2022-10-19T14:43:50.339Z,98769.78
2022-10-19T14:46:53.147Z,98761.78
2022-10-19T14:49:55.886Z,98757.13
2022-10-19T14:53:04.411Z,98745.75
2022-10-19T14:56:09.272Z,98760.81
2022-10-19T14:59:18.339Z,98777.78
2022-10-19T15:02:24.064Z,98764.97
2022-10-19T15:05:29.248Z,98757.13
2022-10-19T15:08:40.089Z,98769.13
2022-10-19T15:11:46.765Z,98774.13
2022-10-19T15:14:49.844Z,98769.78
2022-10-19T15:17:54.188Z,98763.78
2022-10-19T15:21:12.152Z,98759.78
2022-10-19T15:24:25.404Z,98762.44
2022-10-19T15:27:32.557Z,98758.78
2022-10-19T15:30:35.336Z,98765.78
2022-10-19T15:33:39.457Z,98758.78
2022-10-19T15:36:54.581Z,98771.47
2022-10-19T15:39:59.416Z,98766.78
2022-10-19T15:43:02.258Z,98771.81
2022-10-19T15:46:05.473Z,98764.44
2022-10-19T15:49:33.801Z,98771.94
2022-10-19T15:52:36.535Z,98768.13
2022-10-19T15:55:40.715Z,98769.31
2022-10-19T15:58:43.489Z,98771.63
2022-10-19T16:01:51.372Z,98773.97
2022-10-19T16:04:58.163Z,98772.13
2022-10-19T16:08:00.886Z,98777.81
2022-10-19T16:11:05.303Z,98771.13
2022-10-19T16:14:08.052Z,98766.13
2022-10-19T16:17:11.911Z,98763.44
2022-10-19T16:20:14.688Z,98772.66
2022-10-19T16:23:17.335Z,98771.47
2022-10-19T16:26:21.700Z,98766.31
2022-10-19T16:29:28.202Z,98759.78
2022-10-19T16:32:32.086Z,98753.94
2022-10-19T16:35:34.878Z,98755.97
2022-10-19T16:38:38.011Z,98760.13
2022-10-19T16:41:42.060Z,98756.13
2022-10-19T16:44:45.240Z,98746.09
2022-10-19T16:47:50.474Z,98744.28
2022-10-19T16:51:13.126Z,98744.59
2022-10-19T16:54:17.579Z,98746.25
2022-10-19T16:57:21.697Z,98742.13
2022-10-19T17:00:24.444Z,98733.91
2022-10-19T17:03:27.103Z,98739.41
2022-10-19T17:06:30.160Z,98740.91
2022-10-19T17:09:52.263Z,98731.09
2022-10-19T17:12:57.033Z,98731.09
2022-10-19T17:16:04.114Z,98728.75
2022-10-19T17:19:15.328Z,98738.63
2022-10-19T17:22:19.090Z,98732.06
2022-10-19T17:25:21.907Z,98727.41
2022-10-19T17:28:27.766Z,98727.53
2022-10-19T17:31:31.163Z,98726.41
2022-10-19T17:34:33.910Z,98720.03
2022-10-19T17:37:36.940Z,98709.72
2022-10-19T17:40:39.901Z,98708.69
2022-10-19T17:43:45.304Z,98712.06
2022-10-19T17:46:48.065Z,98717.38
2022-10-19T17:49:50.852Z,98718.41
2022-10-19T17:52:53.592Z,98713.03
2022-10-19T17:55:56.471Z,98696.19
2022-10-19T17:59:02.513Z,98685.50
2022-10-19T18:02:07.534Z,98697.03
2022-10-19T18:05:10.822Z,98703.50
2022-10-19T18:08:13.532Z,98703.81
2022-10-19T18:11:17.343Z,98696.69
2022-10-19T18:14:21.581Z,98693.53
2022-10-19T18:17:27.684Z,98692.38
2022-10-19T18:20:30.750Z,98689.09
2022-10-19T18:23:33.480Z,98692.59
2022-10-19T18:26:36.579Z,98693.91
2022-10-19T18:29:40.842Z,98687.03
2022-10-19T18:32:43.601Z,98686.19
2022-10-19T18:35:46.441Z,98678.03
2022-10-19T18:38:51.339Z,98687.19
2022-10-19T18:41:54.710Z,98681.97
2022-10-19T18:44:59.402Z,98682.69
2022-10-19T18:48:02.129Z,98676.34
2022-10-19T18:51:05.910Z,98668.00
2022-10-19T18:54:08.878Z,98668.34
2022-10-19T18:57:11.609Z,98675.66
2022-10-19T19:00:16.380Z,98676.00
2022-10-19T19:03:20.617Z,98683.19
2022-10-19T19:06:24.660Z,98689.41
2022-10-19T19:09:27.422Z,98683.06
2022-10-19T19:12:31.144Z,98680.38
2022-10-19T19:15:35.265Z,98680.41
2022-10-19T19:18:37.960Z,98692.25
2022-10-19T19:21:43.838Z,98679.53
2022-10-19T19:24:50.270Z,98682.00
2022-10-19T19:27:52.989Z,98668.00
2022-10-19T19:30:57.001Z,98672.66
2022-10-19T19:34:00.936Z,98662.03
2022-10-19T19:37:07.336Z,98672.03
2022-10-19T19:40:13.245Z,98668.50
2022-10-19T19:43:16.256Z,98663.31
2022-10-19T19:46:20.853Z,98665.19
2022-10-19T19:49:24.922Z,98672.84
2022-10-19T19:52:27.621Z,98677.50
2022-10-19T19:55:33.083Z,98675.00
2022-10-19T19:59:02.154Z,98678.00
2022-10-19T20:02:06.349Z,98669.34
2022-10-19T20:05:09.632Z,98677.03
2022-10-19T20:08:12.366Z,98673.34
2022-10-19T20:11:16.030Z,98668.31
2022-10-19T20:14:18.827Z,98663.31
2022-10-19T20:17:24.974Z,98667.66
2022-10-19T20:20:27.653Z,98664.31
2022-10-19T20:23:30.484Z,98660.47
2022-10-19T20:26:33.301Z,98670.78
2022-10-19T20:29:35.983Z,98671.81
2022-10-19T20:32:40.078Z,98662.31
2022-10-19T20:35:42.793Z,98655.38
2022-10-19T20:38:48.826Z,98666.69
2022-10-19T20:41:51.531Z,98655.66
2022-10-19T20:44:55.532Z,98655.38
2022-10-19T20:47:59.983Z,98671.34
2022-10-19T20:51:10.115Z,98657.66
2022-10-19T20:54:13.518Z,98652.31
2022-10-19T20:57:16.454Z,98655.16
2022-10-19T21:00:19.196Z,98656.69
2022-10-19T21:03:23.966Z,98651.84
2022-10-19T21:06:27.869Z,98651.16
2022-10-19T21:09:30.604Z,98651.63
2022-10-19T21:12:33.545Z,98648.31
2022-10-19T21:15:36.317Z,98640.69
2022-10-19T21:18:40.655Z,98637.16
2022-10-19T21:21:44.370Z,98625.84
2022-10-19T21:24:47.073Z,98626.34
2022-10-19T21:27:52.564Z,98624.19
2022-10-19T21:30:55.278Z,98629.72
2022-10-19T21:33:59.464Z,98622.72
2022-10-19T21:37:02.186Z,98613.84
2022-10-19T21:40:05.083Z,98612.88
2022-10-19T21:43:11.032Z,98609.19
2022-10-19T21:46:15.018Z,98602.88
2022-10-19T21:49:19.167Z,98598.41
2022-10-19T21:52:21.911Z,98597.38
2022-10-19T21:55:25.045Z,98589.84
2022-10-19T21:58:27.780Z,98580.69
2022-10-19T22:01:37.250Z,98581.19
2022-10-19T22:04:44.390Z,98580.41
2022-10-19T22:07:47.078Z,98578.59
2022-10-19T22:10:49.845Z,98585.56
2022-10-19T22:13:54.663Z,98573.03
2022-10-19T22:16:57.393Z,98577.88
2022-10-19T22:20:01.445Z,98569.38
2022-10-19T22:23:04.902Z,98574.56
2022-10-19T22:26:14.776Z,98570.56
2022-10-19T22:29:17.633Z,98573.34
2022-10-19T22:32:20.677Z,98566.63
2022-10-19T22:35:24.696Z,98567.81
2022-10-19T22:38:28.441Z,98571.69
2022-10-19T22:41:31.140Z,98570.84
2022-10-19T22:44:33.856Z,98567.66
2022-10-19T22:47:36.527Z,98569.00
2022-10-19T22:50:40.534Z,98571.69
2022-10-19T22:53:43.230Z,98571.00
2022-10-19T22:56:45.877Z,98570.66
2022-10-19T22:59:48.586Z,98568.47
2022-10-19T23:02:51.252Z,98567.00
2022-10-19T23:05:55.334Z,98565.66
2022-10-19T23:08:58.123Z,98557.66
2022-10-19T23:12:00.882Z,98552.97
2022-10-19T23:15:03.594Z,98558.31
2022-10-19T23:18:06.302Z,98563.31
2022-10-19T23:21:12.214Z,98559.00
2022-10-19T23:24:14.833Z,98559.81
2022-10-19T23:27:17.566Z,98557.97
2022-10-19T23:30:20.238Z,98558.34
2022-10-19T23:33:22.977Z,98548.16
2022-10-19T23:36:27.938Z,98554.69
2022-10-19T23:39:30.658Z,98553.03
2022-10-19T23:42:33.335Z,98560.19
2022-10-19T23:45:36.006Z,98553.00
2022-10-19T23:48:39.029Z,98556.22
2022-10-19T23:51:43.128Z,98552.72
2022-10-19T23:54:45.818Z,98549.72
2022-10-19T23:57:48.613Z,98547.56
